Terminal Aerodrome Forecast
Issued by NWS Cleveland, OH

Home | Current Version | Previous Version | Graphics & Text | Print | Product List | Glossary On
Versions: 1 2 3 4 5 6 7 8 9 10 11 12 13 14 15 16 17 18 19 20 21
000
FTUS41 KCLE 220535
TAFERI
TAF
KERI 220535Z 2206/2306 14008KT 6SM -RA BKN060
     FM221200 21010KT P6SM OVC025
     FM222200 28007KT P6SM BKN035
     FM230200 30004KT P6SM BKN010=

USA.gov is the U.S. government's official web portal to all federal, state and local government web resources and services.